Time;durP1;ratioP1;P1;durP2;ratioP2;P2;SDS_P1;SDS_P2;PMS_P1;PMS_P2;Temp;Humidity;BMP_temperature;BMP_pressure;BME280_temperature;BME280_humidity;BME280_pressure;Samples;Min_cycle;Max_cycle;Signal;HPM_P1;HPM_P2
2022/11/22 00:01:38;;;;;;;;;;;;;;;;;;5090696;28;19947;-87
2022/11/22 00:04:04;;;;;;;;;;;;;;;;;;5090955;28;19967;-87
2022/11/22 00:06:30;;;;;;;;;;;;;;;;;;5090500;28;19924;-87
2022/11/22 00:08:56;;;;;;;;;;;;;;;;;;5090684;28;19920;-87
2022/11/22 00:11:22;;;;;;;;;;;;;;;;;;5090652;28;20321;-88
2022/11/22 00:13:48;;;;;;;;;;;;;;;;;;5090734;28;19920;-88
2022/11/22 00:16:14;;;;;;;;;;;;;;;;;;5093757;28;19924;-87
2022/11/22 00:18:39;;;;;;;;;;;;;;;;;;5094206;28;19920;-87
2022/11/22 00:21:05;;;;;;;;;;;;;;;;;;5094322;28;19920;-87
2022/11/22 00:23:31;;;;;;;;;;;;;;;;;;5094071;28;20367;-87
2022/11/22 00:25:57;;;;;;;;;;;;;;;;;;5094006;28;19920;-86
2022/11/22 00:28:23;;;;;;;;;;;;;;;;;;5093892;28;19982;-87
2022/11/22 00:30:49;;;;;;;;;;;;;;;;;;5093914;28;19984;-87
2022/11/22 00:33:15;;;;;;;;;;;;;;;;;;5093799;28;19920;-88
2022/11/22 00:35:41;;;;;;;;;;;;;;;;;;5093859;28;19937;-87
2022/11/22 00:38:07;;;;;;;;;;;;;;;;;;5093708;28;20386;-87
2022/11/22 00:40:33;;;;;;;;;;;;;;;;;;5093578;28;19920;-86
2022/11/22 00:42:59;;;;;;;;;;;;;;;;;;5093575;28;19924;-87
2022/11/22 00:45:25;;;;;;;;;;;;;;;;;;5093553;28;19926;-87
2022/11/22 00:47:51;;;;;;;;;;;;;;;;;;5093582;28;19927;-87
2022/11/22 00:50:17;;;;;;;;;;;;;;;;;;5093602;28;19920;-87
2022/11/22 00:52:42;;;;;;;;;;;;;;;;;;5093800;28;19927;-87
2022/11/22 00:55:08;;;;;;;;;;;;;;;;;;5093258;28;19928;-87
2022/11/22 00:57:34;;;;;;;;;;;;;;;;;;5093470;28;19985;-87
2022/11/22 01:00:00;;;;;;;;;;;;;;;;;;5093402;28;19920;-86
2022/11/22 01:02:26;;;;;;;;;;;;;;;;;;5093313;28;19924;-87
2022/11/22 01:04:52;;;;;;;;;;;;;;;;;;5093028;28;19927;-87
2022/11/22 01:07:18;;;;;;;;;;;;;;;;;;5093161;28;20324;-87
2022/11/22 01:09:44;;;;;;;;;;;;;;;;;;5093317;28;20018;-87
2022/11/22 01:12:10;;;;;;;;;;;;;;;;;;5093225;28;19967;-87
2022/11/22 01:14:35;;;;;;;;;;;;;;;;;;5093271;28;20035;-87
2022/11/22 01:17:01;;;;;;;;;;;;;;;;;;5092879;28;19920;-86
2022/11/22 01:19:27;;;;;;;;;;;;;;;;;;5092639;28;20252;-88
2022/11/22 01:21:53;;;;;;;;;;;;;;;;;;5093054;28;19920;-87
2022/11/22 01:24:19;;;;;;;;;;;;;;;;;;5093254;28;19928;-87
2022/11/22 01:26:45;;;;;;;;;;;;;;;;;;5092469;28;19943;-87
2022/11/22 01:29:11;;;;;;;;;;;;;;;;;;5092915;28;19924;-87
2022/11/22 01:31:37;;;;;;;;;;;;;;;;;;5092720;28;19920;-87
2022/11/22 01:34:03;;;;;;;;;;;;;;;;;;5092560;28;20303;-87
2022/11/22 01:36:29;;;;;;;;;;;;;;;;;;5092497;28;19967;-87
2022/11/22 01:38:55;;;;;;;;;;;;;;;;;;5092726;28;19928;-87
2022/11/22 01:41:21;;;;;;;;;;;;;;;;;;5092784;28;20464;-86
2022/11/22 01:43:47;;;;;;;;;;;;;;;;;;5092626;28;19926;-88
2022/11/22 01:46:12;;;;;;;;;;;;;;;;;;5092402;28;19939;-88
2022/11/22 01:48:38;;;;;;;;;;;;;;;;;;5092457;28;20394;-88
2022/11/22 01:51:04;;;;;;;;;;;;;;;;;;5092525;28;19976;-87
2022/11/22 01:53:30;;;;;;;;;;;;;;;;;;5092225;28;19920;-88
2022/11/22 01:55:56;;;;;;;;;;;;;;;;;;5092443;28;19928;-87
2022/11/22 01:58:22;;;;;;;;;;;;;;;;;;5092469;28;19927;-88
2022/11/22 02:00:48;;;;;;;;;;;;;;;;;;5092192;28;20272;-88
2022/11/22 02:03:14;;;;;;;;;;;;;;;;;;5092821;28;19920;-88
2022/11/22 02:05:39;;;;;;;;;;;;;;;;;;5093053;28;19966;-87
2022/11/22 02:08:05;;;;;;;;;;;;;;;;;;5092099;28;19935;-88
2022/11/22 02:10:31;;;;;;;;;;;;;;;;;;5092109;28;19920;-88
2022/11/22 02:12:57;;;;;;;;;;;;;;;;;;5092023;28;20060;-88
2022/11/22 02:15:23;;;;;;;;;;;;;;;;;;5091984;28;19920;-87
2022/11/22 02:17:49;;;;;;;;;;;;;;;;;;5091621;28;20021;-87
2022/11/22 02:20:16;;;;;;;;;;;;;;;;;;5091868;28;19927;-88
2022/11/22 02:22:42;;;;;;;;;;;;;;;;;;5091877;28;20371;-88
2022/11/22 02:25:08;;;;;;;;;;;;;;;;;;5091718;28;19920;-88
2022/11/22 02:27:33;;;;;;;;;;;;;;;;;;5091628;28;19920;-88
2022/11/22 02:29:59;;;;;;;;;;;;;;;;;;5091681;28;20310;-88
2022/11/22 02:32:25;;;;;;;;;;;;;;;;;;5091787;28;19977;-88
2022/11/22 02:34:51;;;;;;;;;;;;;;;;;;5092147;28;19975;-88
2022/11/22 02:37:17;;;;;;;;;;;;;;;;;;5090826;28;19924;-89
2022/11/22 02:39:43;;;;;;;;;;;;;;;;;;5091597;28;19926;-88
2022/11/22 02:42:09;;;;;;;;;;;;;;;;;;5091887;28;19924;-88
2022/11/22 02:44:35;;;;;;;;;;;;;;;;;;5091994;28;20028;-88
2022/11/22 02:47:01;;;;;;;;;;;;;;;;;;5091320;28;19924;-88
2022/11/22 02:49:27;;;;;;;;;;;;;;;;;;5091816;28;20328;-89
2022/11/22 02:51:53;;;;;;;;;;;;;;;;;;5091455;28;19921;-89
2022/11/22 02:54:18;;;;;;;;;;;;;;;;;;5091297;28;19980;-89
2022/11/22 02:56:44;;;;;;;;;;;;;;;;;;5091332;28;19924;-89
2022/11/22 02:59:12;;;;;;;;;;;;;;;;;;5090970;28;21345;-88
2022/11/22 03:01:38;;;;;;;;;;;;;;;;;;5092176;28;20359;-88
2022/11/22 03:04:04;;;;;;;;;;;;;;;;;;5091559;28;20027;-87
2022/11/22 03:06:30;;;;;;;;;;;;;;;;;;5091391;28;20432;-88
2022/11/22 03:08:56;;;;;;;;;;;;;;;;;;5091732;28;19924;-88
2022/11/22 03:11:22;;;;;;;;;;;;;;;;;;5091450;28;19920;-88
2022/11/22 03:13:48;;;;;;;;;;;;;;;;;;5091371;28;19920;-88
2022/11/22 03:16:14;;;;;;;;;;;;;;;;;;5091237;28;20371;-88
2022/11/22 03:18:39;;;;;;;;;;;;;;;;;;5091594;28;19928;-88
2022/11/22 03:21:05;;;;;;;;;;;;;;;;;;5091418;28;19920;-88
2022/11/22 03:23:31;;;;;;;;;;;;;;;;;;5091539;28;19963;-88
2022/11/22 03:25:57;;;;;;;;;;;;;;;;;;5091587;28;19978;-88
2022/11/22 03:28:23;;;;;;;;;;;;;;;;;;5091315;28;20333;-89
2022/11/22 03:30:49;;;;;;;;;;;;;;;;;;5091286;28;20403;-88
2022/11/22 03:33:15;;;;;;;;;;;;;;;;;;5091421;28;19920;-87
2022/11/22 03:35:41;;;;;;;;;;;;;;;;;;5090934;28;19928;-88
2022/11/22 03:38:07;;;;;;;;;;;;;;;;;;5091153;28;19921;-87
2022/11/22 03:40:32;;;;;;;;;;;;;;;;;;5091213;28;19927;-88
2022/11/22 03:42:59;;;;;;;;;;;;;;;;;;5091355;28;19924;-88
2022/11/22 03:45:25;;;;;;;;;;;;;;;;;;5091111;28;19920;-88
2022/11/22 03:47:50;;;;;;;;;;;;;;;;;;5091125;28;19935;-87
2022/11/22 03:50:16;;;;;;;;;;;;;;;;;;5094298;28;20364;-87
2022/11/22 03:52:42;;;;;;;;;;;;;;;;;;5095200;28;19927;-87
2022/11/22 03:55:08;;;;;;;;;;;;;;;;;;5095031;28;20022;-87
2022/11/22 03:57:34;;;;;;;;;;;;;;;;;;5094767;28;19981;-87
2022/11/22 04:00:00;;;;;;;;;;;;;;;;;;5095090;28;19928;-88
2022/11/22 04:02:26;;;;;;;;;;;;;;;;;;5094807;28;19920;-88
2022/11/22 04:04:52;;;;;;;;;;;;;;;;;;5094872;28;20295;-88
2022/11/22 04:07:18;;;;;;;;;;;;;;;;;;5094681;28;19920;-87
2022/11/22 04:09:44;;;;;;;;;;;;;;;;;;5094771;28;19973;-88
2022/11/22 04:12:09;;;;;;;;;;;;;;;;;;5094648;28;19926;-87
2022/11/22 04:17:39;;;;;;;;;;;;;;;;;;5111480;28;19924;-88
2022/11/22 04:22:49;;;;;;;;;;;;;;;;;;5111497;28;20966;-88
2022/11/22 04:25:15;;;;;;;;;;;;;;;;;;5094462;28;20163;-88
2022/11/22 04:27:42;;;;;;;;;;;;;;;;;;5094500;28;19927;-88
2022/11/22 04:30:08;;;;;;;;;;;;;;;;;;5094897;28;19920;-88
2022/11/22 04:32:46;;;;;;;;;;;;;;;;;;5095248;28;19970;-87
2022/11/22 04:35:12;;;;;;;;;;;;;;;;;;5094540;28;20015;-87
2022/11/22 04:37:38;;;;;;;;;;;;;;;;;;5094467;28;20011;-87
2022/11/22 04:40:03;;;;;;;;;;;;;;;;;;5094584;28;19919;-88
2022/11/22 04:45:14;;;;;;;;;;;;;;;;;;5111333;28;19920;-88
2022/11/22 04:47:58;;;;;;;;;;;;;;;;;;5094184;28;19945;-87
2022/11/22 04:53:09;;;;;;;;;;;;;;;;;;5111442;28;20026;-87
2022/11/22 04:55:35;;;;;;;;;;;;;;;;;;5093936;28;20506;-88
2022/11/22 04:58:01;;;;;;;;;;;;;;;;;;5093951;28;20011;-87
2022/11/22 05:00:27;;;;;;;;;;;;;;;;;;5093037;28;20390;-88
2022/11/22 05:02:53;;;;;;;;;;;;;;;;;;5093872;28;19920;-87
2022/11/22 05:05:18;;;;;;;;;;;;;;;;;;5093712;28;19923;-87
2022/11/22 05:07:44;;;;;;;;;;;;;;;;;;5093669;28;19943;-87
2022/11/22 05:10:10;;;;;;;;;;;;;;;;;;5093993;28;19920;-87
2022/11/22 05:12:36;;;;;;;;;;;;;;;;;;5093701;28;20080;-87
2022/11/22 05:15:02;;;;;;;;;;;;;;;;;;5094202;28;19924;-87
2022/11/22 05:17:28;;;;;;;;;;;;;;;;;;5093745;28;20433;-88
2022/11/22 05:19:54;;;;;;;;;;;;;;;;;;5093711;28;19924;-87
2022/11/22 05:23:53;;;;;;;;;;;;;;;;;;5093716;28;19924;-88
2022/11/22 05:25:06;;;;;;;;;;;;;;;;;;5094084;28;19920;-88
2022/11/22 05:27:32;;;;;;;;;;;;;;;;;;5093681;28;20011;-87
2022/11/22 05:29:57;;;;;;;;;;;;;;;;;;5094333;28;19981;-88
2022/11/22 05:32:23;;;;;;;;;;;;;;;;;;5093573;28;19942;-87
2022/11/22 05:34:49;;;;;;;;;;;;;;;;;;5095962;28;19938;-87
2022/11/22 05:37:15;;;;;;;;;;;;;;;;;;5094618;28;19928;-87
2022/11/22 05:39:41;;;;;;;;;;;;;;;;;;5094229;28;19970;-87
2022/11/22 05:42:07;;;;;;;;;;;;;;;;;;5094403;28;20446;-87
2022/11/22 05:44:33;;;;;;;;;;;;;;;;;;5094240;28;20007;-87
2022/11/22 05:46:59;;;;;;;;;;;;;;;;;;5093553;28;19930;-87
2022/11/22 05:49:25;;;;;;;;;;;;;;;;;;5093461;28;19965;-87
2022/11/22 05:51:50;;;;;;;;;;;;;;;;;;5093788;28;19935;-87
2022/11/22 05:54:16;;;;;;;;;;;;;;;;;;5093155;28;19920;-87
2022/11/22 05:56:42;;;;;;;;;;;;;;;;;;5093253;28;19924;-87
2022/11/22 05:59:08;;;;;;;;;;;;;;;;;;5093371;28;20410;-88
2022/11/22 06:01:34;;;;;;;;;;;;;;;;;;5093368;28;19996;-87
2022/11/22 06:04:01;;;;;;;;;;;;;;;;;;5095250;28;19920;-87
2022/11/22 06:06:27;;;;;;;;;;;;;;;;;;5093677;28;19962;-87
2022/11/22 06:08:53;;;;;;;;;;;;;;;;;;5093463;28;19981;-87
2022/11/22 06:11:19;;;;;;;;;;;;;;;;;;5093583;28;19920;-87
2022/11/22 06:13:45;;;;;;;;;;;;;;;;;;5092263;28;19920;-87
2022/11/22 06:16:11;;;;;;;;;;;;;;;;;;5093049;28;20052;-87
2022/11/22 06:18:37;;;;;;;;;;;;;;;;;;5092835;28;19920;-86
2022/11/22 06:21:03;;;;;;;;;;;;;;;;;;5092760;28;19927;-87
2022/11/22 06:23:30;;;;;;;;;;;;;;;;;;5092771;28;20097;-86
2022/11/22 06:25:56;;;;;;;;;;;;;;;;;;5092278;28;19920;-87
2022/11/22 06:28:22;;;;;;;;;;;;;;;;;;5092234;28;20409;-87
2022/11/22 06:30:48;;;;;;;;;;;;;;;;;;5091993;28;19964;-87
2022/11/22 06:33:14;;;;;;;;;;;;;;;;;;5092148;28;19960;-86
2022/11/22 06:35:40;;;;;;;;;;;;;;;;;;5092251;28;19924;-88
2022/11/22 06:38:06;;;;;;;;;;;;;;;;;;5091896;28;19963;-87
2022/11/22 06:40:32;;;;;;;;;;;;;;;;;;5091903;28;19978;-87
2022/11/22 06:42:58;;;;;;;;;;;;;;;;;;5091808;28;20015;-87
2022/11/22 06:45:23;;;;;;;;;;;;;;;;;;5091938;28;19971;-86
2022/11/22 06:47:49;;;;;;;;;;;;;;;;;;5091709;28;20003;-87
2022/11/22 06:50:15;;;;;;;;;;;;;;;;;;5091730;28;19998;-87
2022/11/22 06:52:41;;;;;;;;;;;;;;;;;;5091919;28;20006;-86
2022/11/22 06:55:07;;;;;;;;;;;;;;;;;;5091711;28;19924;-87
2022/11/22 06:57:33;;;;;;;;;;;;;;;;;;5091695;28;19931;-87
2022/11/22 06:59:59;;;;;;;;;;;;;;;;;;5091609;28;20046;-86
2022/11/22 07:02:25;;;;;;;;;;;;;;;;;;5091554;28;20398;-87
2022/11/22 07:04:51;;;;;;;;;;;;;;;;;;5091689;28;19920;-90
2022/11/22 07:07:16;;;;;;;;;;;;;;;;;;5091392;28;19967;-88
2022/11/22 07:09:42;;;;;;;;;;;;;;;;;;5091861;28;20007;-89
2022/11/22 07:12:08;;;;;;;;;;;;;;;;;;5091947;28;19930;-88
2022/11/22 07:14:34;;;;;;;;;;;;;;;;;;5091450;28;19927;-88
2022/11/22 07:17:00;;;;;;;;;;;;;;;;;;5091201;28;20318;-89
2022/11/22 07:19:26;;;;;;;;;;;;;;;;;;5091683;28;19924;-90
2022/11/22 07:21:52;;;;;;;;;;;;;;;;;;5091929;28;20419;-89
2022/11/22 07:24:18;;;;;;;;;;;;;;;;;;5093631;28;20418;-93
2022/11/22 07:26:44;;;;;;;;;;;;;;;;;;5096271;28;19944;-86
2022/11/22 07:29:10;;;;;;;;;;;;;;;;;;5095605;28;19920;-87
2022/11/22 07:31:36;;;;;;;;;;;;;;;;;;5095432;28;19962;-86
2022/11/22 07:34:01;;;;;;;;;;;;;;;;;;5095349;28;19928;-87
2022/11/22 07:36:29;;;;;;;;;;;;;;;;;;5095177;28;19928;-87
2022/11/22 07:38:55;;;;;;;;;;;;;;;;;;5095652;28;20286;-87
2022/11/22 07:41:21;;;;;;;;;;;;;;;;;;5095335;28;19998;-88
2022/11/22 07:43:47;;;;;;;;;;;;;;;;;;5095476;28;20329;-90
2022/11/22 07:46:13;;;;;;;;;;;;;;;;;;5095263;28;19920;-88
2022/11/22 07:48:38;;;;;;;;;;;;;;;;;;5095213;28;20299;-88
2022/11/22 07:51:04;;;;;;;;;;;;;;;;;;5095028;28;19934;-87
2022/11/22 07:53:30;;;;;;;;;;;;;;;;;;5095030;28;19926;-89
2022/11/22 07:55:56;;;;;;;;;;;;;;;;;;5095218;28;19965;-89
2022/11/22 07:58:22;;;;;;;;;;;;;;;;;;5094948;28;19920;-86
2022/11/22 08:00:48;;;;;;;;;;;;;;;;;;5094921;28;19920;-87
2022/11/22 08:03:14;;;;;;;;;;;;;;;;;;5094998;28;20378;-90
2022/11/22 08:05:40;;;;;;;;;;;;;;;;;;5095426;28;19924;-89
2022/11/22 08:08:06;;;;;;;;;;;;;;;;;;5095471;28;19978;-90
2022/11/22 08:10:32;;;;;;;;;;;;;;;;;;5095116;28;19927;-87
2022/11/22 08:12:58;;;;;;;;;;;;;;;;;;5095078;28;19965;-87
2022/11/22 08:15:24;;;;;;;;;;;;;;;;;;5094575;28;20449;-88
2022/11/22 08:17:50;;;;;;;;;;;;;;;;;;5097581;28;20011;-89
2022/11/22 08:20:16;;;;;;;;;;;;;;;;;;5097673;28;19920;-88
2022/11/22 08:22:42;;;;;;;;;;;;;;;;;;5098017;28;20390;-88
2022/11/22 08:25:11;;;;;;;;;;;;;;;;;;5098030;28;19926;-89
2022/11/22 08:27:37;;;;;;;;;;;;;;;;;;5113968;28;19916;-87
2022/11/22 08:30:03;;;;;;;;;;;;;;;;;;5097541;28;19919;-87
2022/11/22 08:32:29;;;;;;;;;;;;;;;;;;5097299;28;19946;-88
2022/11/22 08:34:55;;;;;;;;;;;;;;;;;;5113630;28;19920;-87
2022/11/22 08:37:21;;;;;;;;;;;;;;;;;;5113873;28;19984;-87
2022/11/22 08:39:47;;;;;;;;;;;;;;;;;;5097507;28;19975;-87
2022/11/22 08:42:12;;;;;;;;;;;;;;;;;;5097828;28;19919;-87
2022/11/22 08:44:38;;;;;;;;;;;;;;;;;;5112595;28;19923;-87
2022/11/22 08:47:05;;;;;;;;;;;;;;;;;;5114268;28;20014;-87
2022/11/22 08:49:31;;;;;;;;;;;;;;;;;;5096765;28;20419;-88
2022/11/22 08:51:56;;;;;;;;;;;;;;;;;;5097132;28;20003;-87
2022/11/22 08:54:22;;;;;;;;;;;;;;;;;;5097287;28;19946;-86
2022/11/22 08:56:48;;;;;;;;;;;;;;;;;;5114198;28;19931;-87
2022/11/22 08:59:14;;;;;;;;;;;;;;;;;;5097200;28;19919;-87
2022/11/22 09:01:40;;;;;;;;;;;;;;;;;;5114593;28;19990;-87
2022/11/22 09:04:06;;;;;;;;;;;;;;;;;;5114437;28;19924;-87
2022/11/22 09:06:32;;;;;;;;;;;;;;;;;;5097148;28;19920;-87
2022/11/22 09:08:58;;;;;;;;;;;;;;;;;;5114003;28;20298;-87
2022/11/22 09:11:23;;;;;;;;;;;;;;;;;;5113925;28;20330;-87
2022/11/22 09:13:49;;;;;;;;;;;;;;;;;;5097048;28;19941;-87
2022/11/22 09:16:15;;;;;;;;;;;;;;;;;;5099693;28;19924;-88
2022/11/22 09:18:41;;;;;;;;;;;;;;;;;;5093420;28;19927;-87
2022/11/22 09:21:07;;;;;;;;;;;;;;;;;;5093969;28;20018;-87
2022/11/22 09:23:33;;;;;;;;;;;;;;;;;;5093545;28;19920;-87
2022/11/22 09:25:59;;;;;;;;;;;;;;;;;;5110287;28;19923;-88
2022/11/22 09:28:25;;;;;;;;;;;;;;;;;;5093353;28;20303;-88
2022/11/22 09:30:51;;;;;;;;;;;;;;;;;;5110517;28;19926;-88
2022/11/22 09:33:17;;;;;;;;;;;;;;;;;;5093023;28;19931;-87
2022/11/22 09:35:43;;;;;;;;;;;;;;;;;;5110101;28;19921;-87
2022/11/22 09:38:09;;;;;;;;;;;;;;;;;;5127138;27;19970;-89
2022/11/22 09:40:35;;;;;;;;;;;;;;;;;;5093009;28;19920;-87
2022/11/22 09:43:01;;;;;;;;;;;;;;;;;;5092962;28;19924;-88
2022/11/22 09:45:27;;;;;;;;;;;;;;;;;;5109901;28;19920;-87
2022/11/22 09:47:54;;;;;;;;;;;;;;;;;;5109506;28;19927;-87
2022/11/22 09:50:20;;;;;;;;;;;;;;;;;;5092894;28;19959;-87
2022/11/22 09:52:46;;;;;;;;;;;;;;;;;;5092863;28;19955;-88
2022/11/22 09:55:12;;;;;;;;;;;;;;;;;;5092922;28;19924;-91
2022/11/22 09:57:38;;;;;;;;;;;;;;;;;;5109836;28;19931;-90
2022/11/22 10:00:03;;;;;;;;;;;;;;;;;;5110334;28;19920;-93
2022/11/22 10:02:29;;;;;;;;;;;;;;;;;;5110780;28;19924;-91
2022/11/22 10:04:55;;;;;;;;;;;;;;;;;;5110363;28;20287;-90
2022/11/22 10:07:21;;;;;;;;;;;;;;;;;;5109957;28;19920;-92
2022/11/22 10:09:47;;;;;;;;;;;;;;;;;;5110674;28;19927;-93
2022/11/22 10:12:13;;;;;;;;;;;;;;;;;;5110385;28;19977;-91
2022/11/22 10:14:39;;;;;;;;;;;;;;;;;;5109888;28;20002;-92
2022/11/22 10:17:05;;;;;;;;;;;;;;;;;;5109741;28;19928;-91
2022/11/22 10:19:31;;;;;;;;;;;;;;;;;;5109579;28;19920;-93
2022/11/22 10:21:57;;;;;;;;;;;;;;;;;;5097551;28;20291;-90
2022/11/22 10:24:23;;;;;;;;;;;;;;;;;;5076063;28;19927;-91
2022/11/22 10:26:48;;;;;;;;;;;;;;;;;;5092663;28;19931;-91
2022/11/22 10:29:14;;;;;;;;;;;;;;;;;;5075816;28;20006;-91
2022/11/22 10:31:40;;;;;;;;;;;;;;;;;;5075831;28;20330;-91
2022/11/22 10:34:06;;;;;;;;;;;;;;;;;;5075772;28;19920;-91
2022/11/22 10:36:32;;;;;;;;;;;;;;;;;;5075411;28;19924;-90
2022/11/22 10:38:58;;;;;;;;;;;;;;;;;;5075471;28;20283;-90
2022/11/22 10:41:24;;;;;;;;;;;;;;;;;;5075991;28;19920;-91
2022/11/22 10:43:50;;;;;;;;;;;;;;;;;;5092312;28;19926;-91
2022/11/22 10:46:16;;;;;;;;;;;;;;;;;;5092493;28;19920;-91
2022/11/22 10:48:42;;;;;;;;;;;;;;;;;;5092390;28;20018;-90
2022/11/22 10:51:08;;;;;;;;;;;;;;;;;;5092484;28;19920;-91
2022/11/22 10:53:34;;;;;;;;;;;;;;;;;;5075230;28;19926;-90
2022/11/22 10:56:00;;;;;;;;;;;;;;;;;;5075613;28;19955;-91
2022/11/22 10:58:26;;;;;;;;;;;;;;;;;;5074470;28;20031;-91
2022/11/22 11:00:52;;;;;;;;;;;;;;;;;;5075391;28;19967;-91
2022/11/22 11:03:18;;;;;;;;;;;;;;;;;;5075344;28;19963;-90
2022/11/22 11:05:44;;;;;;;;;;;;;;;;;;5075462;28;19927;-91
2022/11/22 11:08:10;;;;;;;;;;;;;;;;;;5080634;28;19924;-91
2022/11/22 11:10:36;;;;;;;;;;;;;;;;;;5079637;28;19920;-90
2022/11/22 11:13:02;;;;;;;;;;;;;;;;;;5093745;28;19942;-90
2022/11/22 11:15:28;;;;;;;;;;;;;;;;;;5076044;28;20430;-91
2022/11/22 11:17:54;;;;;;;;;;;;;;;;;;5100589;28;19974;-90
2022/11/22 11:20:21;;;;;;;;;;;;;;;;;;5083381;28;19920;-91
2022/11/22 11:22:47;;;;;;;;;;;;;;;;;;5094393;28;20375;-89
2022/11/22 11:25:13;;;;;;;;;;;;;;;;;;5074824;28;19927;-88
2022/11/22 11:27:39;;;;;;;;;;;;;;;;;;5074095;28;20014;-88
2022/11/22 11:30:06;;;;;;;;;;;;;;;;;;5074456;28;20279;-88
2022/11/22 11:32:31;;;;;;;;;;;;;;;;;;5074343;28;19931;-88
2022/11/22 11:34:57;;;;;;;;;;;;;;;;;;5074410;28;19920;-88
2022/11/22 11:37:23;;;;;;;;;;;;;;;;;;5074050;28;19947;-88
2022/11/22 11:39:49;;;;;;;;;;;;;;;;;;5074383;28;19947;-88
2022/11/22 11:42:15;;;;;;;;;;;;;;;;;;5091149;28;19927;-90
2022/11/22 11:44:41;;;;;;;;;;;;;;;;;;5091278;28;19927;-90
2022/11/22 11:47:07;;;;;;;;;;;;;;;;;;5074456;28;19920;-89
2022/11/22 11:49:33;;;;;;;;;;;;;;;;;;5074452;28;20359;-89
2022/11/22 11:51:59;;;;;;;;;;;;;;;;;;5090997;28;19923;-88
2022/11/22 11:54:25;;;;;;;;;;;;;;;;;;5091142;28;19931;-88
2022/11/22 11:56:51;;;;;;;;;;;;;;;;;;5073978;28;20382;-89
2022/11/22 11:59:17;;;;;;;;;;;;;;;;;;5091361;28;19935;-89
2022/11/22 12:01:43;;;;;;;;;;;;;;;;;;5074483;28;20011;-89
2022/11/22 12:04:09;;;;;;;;;;;;;;;;;;5091350;28;19927;-89
2022/11/22 12:06:35;;;;;;;;;;;;;;;;;;5074483;28;19966;-89
2022/11/22 12:09:00;;;;;;;;;;;;;;;;;;5091746;28;19921;-89
2022/11/22 12:11:26;;;;;;;;;;;;;;;;;;5094296;28;20378;-90
2022/11/22 12:13:52;;;;;;;;;;;;;;;;;;5078010;28;20105;-88
2022/11/22 12:16:18;;;;;;;;;;;;;;;;;;5077945;28;19931;-90
2022/11/22 12:18:44;;;;;;;;;;;;;;;;;;5078122;28;19927;-90
2022/11/22 12:21:10;;;;;;;;;;;;;;;;;;5094888;28;20295;-89
2022/11/22 12:23:36;;;;;;;;;;;;;;;;;;5094843;28;19920;-90
2022/11/22 12:26:03;;;;;;;;;;;;;;;;;;5094810;28;19919;-89
2022/11/22 12:28:31;;;;;;;;;;;;;;;;;;5077904;28;20010;-90
2022/11/22 12:30:56;;;;;;;;;;;;;;;;;;5077863;28;19920;-90
2022/11/22 12:33:22;;;;;;;;;;;;;;;;;;5077861;28;20350;-89
2022/11/22 12:35:48;;;;;;;;;;;;;;;;;;5077789;28;19959;-87
2022/11/22 12:38:14;;;;;;;;;;;;;;;;;;5094568;28;20422;-89
2022/11/22 12:40:40;;;;;;;;;;;;;;;;;;5094484;28;20023;-89
2022/11/22 12:43:06;;;;;;;;;;;;;;;;;;5077662;28;19998;-89
2022/11/22 12:45:32;;;;;;;;;;;;;;;;;;5077684;28;19978;-89
2022/11/22 12:47:58;;;;;;;;;;;;;;;;;;5107409;28;20339;-89
2022/11/22 12:50:24;;;;;;;;;;;;;;;;;;5114804;28;19919;-88
2022/11/22 12:52:50;;;;;;;;;;;;;;;;;;5114649;28;19943;-90
2022/11/22 12:55:15;;;;;;;;;;;;;;;;;;5097440;28;19924;-89
2022/11/22 12:57:41;;;;;;;;;;;;;;;;;;5114331;28;19999;-89
2022/11/22 13:00:07;;;;;;;;;;;;;;;;;;5108416;28;19995;-89
2022/11/22 13:02:33;;;;;;;;;;;;;;;;;;5093889;28;19924;-89
2022/11/22 13:04:59;;;;;;;;;;;;;;;;;;5093904;28;20268;-89
2022/11/22 13:07:25;;;;;;;;;;;;;;;;;;5093709;28;19924;-89
2022/11/22 13:09:51;;;;;;;;;;;;;;;;;;5093868;28;19920;-90
2022/11/22 13:12:17;;;;;;;;;;;;;;;;;;5077035;28;19919;-89
2022/11/22 13:14:43;;;;;;;;;;;;;;;;;;5082853;28;20323;-90
2022/11/22 13:17:09;;;;;;;;;;;;;;;;;;5097024;28;19928;-89
2022/11/22 13:19:36;;;;;;;;;;;;;;;;;;5114003;28;19923;-90
2022/11/22 13:22:02;;;;;;;;;;;;;;;;;;5096704;28;19920;-90
2022/11/22 13:24:28;;;;;;;;;;;;;;;;;;5096474;28;20014;-89
2022/11/22 13:26:54;;;;;;;;;;;;;;;;;;5096840;28;19967;-89
2022/11/22 13:29:20;;;;;;;;;;;;;;;;;;5097095;28;19969;-90
2022/11/22 13:31:46;;;;;;;;;;;;;;;;;;5113906;28;19967;-89
2022/11/22 13:34:12;;;;;;;;;;;;;;;;;;5097075;28;19919;-90
2022/11/22 13:36:40;;;;;;;;;;;;;;;;;;5096578;28;20061;-92
2022/11/22 13:39:05;;;;;;;;;;;;;;;;;;5097319;28;19920;-92
2022/11/22 13:41:31;;;;;;;;;;;;;;;;;;5097646;28;19920;-92
2022/11/22 13:43:58;;;;;;;;;;;;;;;;;;5097448;28;19920;-90
2022/11/22 13:46:24;;;;;;;;;;;;;;;;;;5114379;28;20366;-91
2022/11/22 13:48:50;;;;;;;;;;;;;;;;;;5097583;28;19920;-91
2022/11/22 13:51:20;;;;;;;;;;;;;;;;;;5097470;28;19990;-91
2022/11/22 13:53:46;;;;;;;;;;;;;;;;;;5097012;28;19924;-91
2022/11/22 13:56:12;;;;;;;;;;;;;;;;;;5097015;28;20397;-92
2022/11/22 13:58:38;;;;;;;;;;;;;;;;;;5097265;28;19920;-91
2022/11/22 14:01:04;;;;;;;;;;;;;;;;;;5097046;28;19927;-92
2022/11/22 14:03:30;;;;;;;;;;;;;;;;;;5097041;28;19920;-92
2022/11/22 14:05:56;;;;;;;;;;;;;;;;;;5096861;28;20286;-92
2022/11/22 14:08:22;;;;;;;;;;;;;;;;;;5097091;28;20412;-90
2022/11/22 14:10:48;;;;;;;;;;;;;;;;;;5096995;28;19920;-91
2022/11/22 14:13:14;;;;;;;;;;;;;;;;;;5097083;28;19919;-91
2022/11/22 14:15:40;;;;;;;;;;;;;;;;;;5096939;28;19924;-91
2022/11/22 14:18:06;;;;;;;;;;;;;;;;;;5096204;28;19967;-92
2022/11/22 14:20:32;;;;;;;;;;;;;;;;;;5096438;28;19920;-91
2022/11/22 14:22:58;;;;;;;;;;;;;;;;;;5096511;28;20290;-90
2022/11/22 14:25:24;;;;;;;;;;;;;;;;;;5096741;28;20286;-92
2022/11/22 14:27:50;;;;;;;;;;;;;;;;;;5096480;28;19984;-91
2022/11/22 14:30:16;;;;;;;;;;;;;;;;;;5097379;28;20438;-92
2022/11/22 14:32:42;;;;;;;;;;;;;;;;;;5096221;28;19920;-90
2022/11/22 14:35:08;;;;;;;;;;;;;;;;;;5095579;28;19926;-91
2022/11/22 14:37:34;;;;;;;;;;;;;;;;;;5113760;28;19923;-91
2022/11/22 14:40:00;;;;;;;;;;;;;;;;;;5112450;28;20419;-90
2022/11/22 14:42:26;;;;;;;;;;;;;;;;;;5096689;28;20363;-86
2022/11/22 14:44:52;;;;;;;;;;;;;;;;;;5095188;28;19919;-87
2022/11/22 14:47:18;;;;;;;;;;;;;;;;;;5112285;28;19919;-86
2022/11/22 14:49:45;;;;;;;;;;;;;;;;;;5111822;28;19919;-86
2022/11/22 14:52:11;;;;;;;;;;;;;;;;;;5112064;28;19920;-88
2022/11/22 14:54:37;;;;;;;;;;;;;;;;;;5094801;28;19924;-87
2022/11/22 14:57:03;;;;;;;;;;;;;;;;;;5111557;28;19968;-87
2022/11/22 14:59:29;;;;;;;;;;;;;;;;;;5111678;28;19923;-86
2022/11/22 15:01:55;;;;;;;;;;;;;;;;;;5111801;28;19919;-87
2022/11/22 15:04:21;;;;;;;;;;;;;;;;;;5094847;28;20323;-86
2022/11/22 15:06:47;;;;;;;;;;;;;;;;;;5094940;28;19993;-87
2022/11/22 15:09:12;;;;;;;;;;;;;;;;;;5111621;28;20097;-86
2022/11/22 15:11:38;;;;;;;;;;;;;;;;;;5094578;28;19924;-86
2022/11/22 15:14:04;;;;;;;;;;;;;;;;;;5111602;28;19927;-88
2022/11/22 15:16:30;;;;;;;;;;;;;;;;;;5095064;28;19924;-89
2022/11/22 15:19:01;;;;;;;;;;;;;;;;;;5112100;28;19963;-89
2022/11/22 15:21:27;;;;;;;;;;;;;;;;;;5094934;28;19919;-88
2022/11/22 15:23:53;;;;;;;;;;;;;;;;;;5095071;28;20382;-88
2022/11/22 15:26:19;;;;;;;;;;;;;;;;;;5094995;28;20000;-88
2022/11/22 15:28:45;;;;;;;;;;;;;;;;;;5112173;28;19920;-87
2022/11/22 15:31:11;;;;;;;;;;;;;;;;;;5095584;28;19919;-89
2022/11/22 15:33:37;;;;;;;;;;;;;;;;;;5094791;28;19920;-90
2022/11/22 15:36:02;;;;;;;;;;;;;;;;;;5112406;28;19924;-89
2022/11/22 15:38:28;;;;;;;;;;;;;;;;;;5111814;28;19920;-89
2022/11/22 15:40:54;;;;;;;;;;;;;;;;;;5112475;28;20367;-89
2022/11/22 15:43:20;;;;;;;;;;;;;;;;;;5095679;28;19965;-89
2022/11/22 15:45:46;;;;;;;;;;;;;;;;;;5096213;28;19923;-89
2022/11/22 15:48:12;;;;;;;;;;;;;;;;;;5114674;28;19919;-89
2022/11/22 15:50:38;;;;;;;;;;;;;;;;;;5116435;28;19920;-89
2022/11/22 15:53:04;;;;;;;;;;;;;;;;;;5116263;28;20390;-89
2022/11/22 15:55:30;;;;;;;;;;;;;;;;;;5115327;28;19924;-89
2022/11/22 15:57:56;;;;;;;;;;;;;;;;;;5078904;28;19924;-88
2022/11/22 16:00:22;;;;;;;;;;;;;;;;;;5095762;28;19926;-89
2022/11/22 16:02:47;;;;;;;;;;;;;;;;;;5099417;28;20279;-89
2022/11/22 16:05:13;;;;;;;;;;;;;;;;;;5096052;28;19943;-90
2022/11/22 16:07:41;;;;;;;;;;;;;;;;;;5101216;28;19967;-90
2022/11/22 16:10:06;;;;;;;;;;;;;;;;;;5078960;28;20386;-91
2022/11/22 16:12:32;;;;;;;;;;;;;;;;;;5095570;28;19927;-91
2022/11/22 16:14:58;;;;;;;;;;;;;;;;;;5109741;28;19926;-90
2022/11/22 16:17:24;;;;;;;;;;;;;;;;;;5079447;28;19927;-90
2022/11/22 16:19:50;;;;;;;;;;;;;;;;;;5095995;28;20311;-91
2022/11/22 16:22:16;;;;;;;;;;;;;;;;;;5095778;28;20328;-91
2022/11/22 16:24:42;;;;;;;;;;;;;;;;;;5111887;28;19970;-91
2022/11/22 16:27:08;;;;;;;;;;;;;;;;;;5106811;28;19927;-90
2022/11/22 16:29:34;;;;;;;;;;;;;;;;;;5095061;28;19927;-89
2022/11/22 16:32:00;;;;;;;;;;;;;;;;;;5111725;28;19926;-89
2022/11/22 16:34:27;;;;;;;;;;;;;;;;;;5094937;28;19920;-89
2022/11/22 16:36:53;;;;;;;;;;;;;;;;;;5111640;28;19924;-90
2022/11/22 16:39:20;;;;;;;;;;;;;;;;;;5112070;28;20024;-89
2022/11/22 16:41:46;;;;;;;;;;;;;;;;;;5113721;28;19920;-88
2022/11/22 16:44:12;;;;;;;;;;;;;;;;;;5100458;28;19956;-91
2022/11/22 16:46:38;;;;;;;;;;;;;;;;;;5094431;28;20371;-90
2022/11/22 16:49:04;;;;;;;;;;;;;;;;;;5111840;28;19927;-88